createdAt,value
2018-06-01T00:00:15.706Z,18.90
2018-06-01T00:02:48.789Z,18.80
2018-06-01T00:05:21.948Z,18.80
2018-06-01T00:07:54.320Z,18.70
2018-06-01T00:10:26.611Z,18.70
2018-06-01T00:12:58.914Z,18.70
2018-06-01T00:15:31.244Z,18.60
2018-06-01T00:18:03.531Z,18.60
2018-06-01T00:20:35.864Z,18.60
2018-06-01T00:23:08.240Z,18.60
2018-06-01T00:25:40.653Z,18.60
2018-06-01T00:28:12.923Z,18.60
2018-06-01T00:30:45.288Z,18.60
2018-06-01T00:33:17.603Z,18.60
2018-06-01T00:35:49.934Z,18.50
2018-06-01T00:38:22.283Z,18.50
2018-06-01T00:40:54.631Z,18.50
2018-06-01T00:43:26.962Z,18.50
2018-06-01T00:46:00.137Z,18.50
2018-06-01T00:48:32.415Z,18.50
2018-06-01T00:51:04.773Z,18.60
2018-06-01T00:53:37.104Z,18.60
2018-06-01T00:56:09.701Z,18.50
2018-06-01T00:58:41.949Z,18.50
2018-06-01T01:01:14.342Z,18.50
2018-06-01T01:03:46.826Z,18.50
2018-06-01T01:06:19.311Z,18.40
2018-06-01T01:08:51.581Z,18.40
2018-06-01T01:11:23.887Z,18.40
2018-06-01T01:13:56.913Z,18.30
2018-06-01T01:16:29.227Z,18.30
2018-06-01T01:19:02.284Z,18.30
2018-06-01T01:21:34.617Z,18.30
2018-06-01T01:24:06.981Z,18.30
2018-06-01T01:26:40.114Z,18.20
2018-06-01T01:29:12.491Z,18.20
2018-06-01T01:31:45.738Z,18.20
2018-06-01T01:34:18.858Z,18.20
2018-06-01T01:36:51.368Z,18.20
2018-06-01T01:39:23.615Z,18.20
2018-06-01T01:41:55.981Z,18.30
2018-06-01T01:44:28.291Z,18.20
2018-06-01T01:47:00.644Z,18.20
2018-06-01T01:49:32.885Z,18.20
2018-06-01T01:52:05.196Z,18.20
2018-06-01T01:54:37.542Z,18.20
2018-06-01T01:57:10.743Z,18.20
2018-06-01T01:59:43.082Z,18.20
2018-06-01T02:02:15.435Z,18.20
2018-06-01T02:04:47.783Z,18.20
2018-06-01T02:07:20.182Z,18.20
2018-06-01T02:09:53.322Z,18.20
2018-06-01T02:12:25.693Z,18.20
2018-06-01T02:14:58.083Z,18.20
2018-06-01T02:17:30.389Z,18.20
2018-06-01T02:20:03.508Z,18.20
2018-06-01T02:22:35.968Z,18.20
2018-06-01T02:25:08.980Z,18.20
2018-06-01T02:27:41.379Z,18.20
2018-06-01T02:30:13.672Z,18.20
2018-06-01T02:32:46.776Z,18.10
2018-06-01T02:35:19.902Z,18.10
2018-06-01T02:37:52.229Z,18.10
2018-06-01T02:40:24.576Z,18.10
2018-06-01T02:42:56.903Z,18.10
2018-06-01T02:45:29.251Z,18.10
2018-06-01T02:48:02.339Z,18.00
2018-06-01T02:50:34.573Z,18.00
2018-06-01T02:53:06.916Z,18.00
2018-06-01T02:55:39.247Z,17.90
2018-06-01T02:58:12.398Z,17.90
2018-06-01T03:00:44.757Z,17.90
2018-06-01T03:03:17.169Z,17.90
2018-06-01T03:05:49.509Z,18.00
2018-06-01T03:08:21.905Z,18.00
2018-06-01T03:10:54.292Z,18.00
2018-06-01T03:13:26.646Z,18.00
2018-06-01T03:15:58.948Z,18.00
2018-06-01T03:18:31.241Z,18.00
2018-06-01T03:21:04.285Z,18.10
2018-06-01T03:23:36.753Z,18.10
2018-06-01T03:26:09.100Z,18.10
2018-06-01T03:28:41.547Z,18.20
2018-06-01T03:31:14.693Z,18.20
2018-06-01T03:33:47.021Z,18.20
2018-06-01T03:36:20.191Z,18.20
2018-06-01T03:38:52.545Z,18.20
2018-06-01T03:41:24.943Z,18.20
2018-06-01T03:43:57.252Z,18.20
2018-06-01T03:46:29.544Z,18.20
2018-06-01T03:49:01.933Z,18.30
2018-06-01T03:51:34.189Z,18.30
2018-06-01T03:54:06.551Z,18.30
2018-06-01T03:56:38.851Z,18.40
2018-06-01T03:59:11.210Z,18.40
2018-06-01T04:01:43.574Z,18.50
2018-06-01T04:04:16.002Z,18.50
2018-06-01T04:06:48.400Z,18.50
2018-06-01T04:09:20.747Z,18.60
2018-06-01T04:11:53.767Z,18.60
2018-06-01T04:14:26.122Z,18.70
2018-06-01T04:16:59.259Z,18.60
2018-06-01T04:19:31.555Z,18.60
2018-06-01T04:22:04.676Z,18.70
2018-06-01T04:24:37.109Z,18.70
2018-06-01T04:27:10.265Z,18.80
2018-06-01T04:29:42.712Z,18.80
2018-06-01T04:32:15.085Z,18.80
2018-06-01T04:34:47.435Z,18.90
2018-06-01T04:37:20.565Z,18.90
2018-06-01T04:39:52.899Z,18.90
2018-06-01T04:42:25.914Z,19.10
2018-06-01T04:44:58.270Z,19.10
2018-06-01T04:47:30.516Z,19.20
2018-06-01T04:50:02.891Z,19.30
2018-06-01T04:52:35.912Z,19.50
2018-06-01T04:55:08.275Z,19.40
2018-06-01T04:57:41.262Z,19.60
2018-06-01T05:00:14.370Z,19.60
2018-06-01T05:02:46.615Z,19.60
2018-06-01T05:05:19.775Z,19.70
2018-06-01T05:07:52.118Z,19.70
2018-06-01T05:10:24.530Z,19.80
2018-06-01T05:12:56.840Z,19.90
2018-06-01T05:15:29.176Z,20.00
2018-06-01T05:18:02.229Z,20.20
2018-06-01T05:20:34.880Z,20.20
2018-06-01T05:23:07.320Z,20.40
2018-06-01T05:25:39.655Z,20.50
2018-06-01T05:28:11.943Z,20.60
2018-06-01T05:30:44.232Z,20.60
2018-06-01T05:33:16.450Z,20.50
2018-06-01T05:35:48.849Z,20.60
2018-06-01T05:38:21.223Z,20.70
2018-06-01T05:40:53.532Z,21.10
2018-06-01T05:43:26.678Z,21.20
2018-06-01T05:45:59.038Z,21.10
2018-06-01T05:48:31.311Z,21.40
2018-06-01T05:51:03.647Z,21.40
2018-06-01T05:53:36.663Z,21.30
2018-06-01T05:56:08.939Z,21.20
2018-06-01T05:58:41.324Z,21.50
2018-06-01T06:01:13.645Z,21.70
2018-06-01T06:03:46.011Z,21.70
2018-06-01T06:06:18.330Z,21.60
2018-06-01T06:08:50.638Z,21.60
2018-06-01T06:11:22.950Z,21.60
2018-06-01T06:13:55.202Z,21.70
2018-06-01T06:16:28.391Z,22.20
2018-06-01T06:19:00.689Z,22.10
2018-06-01T06:21:33.045Z,22.20
2018-06-01T06:24:05.482Z,22.40
2018-06-01T06:26:37.816Z,22.60
2018-06-01T06:29:10.167Z,22.80
2018-06-01T06:31:42.548Z,23.10
2018-06-01T06:34:15.005Z,23.50
2018-06-01T06:36:48.226Z,24.90
2018-06-01T06:39:20.602Z,24.90
2018-06-01T06:41:52.898Z,25.80
2018-06-01T06:44:25.263Z,26.50
2018-06-01T06:46:57.677Z,26.70
2018-06-01T06:49:30.758Z,27.40
2018-06-01T06:52:03.167Z,27.30
2018-06-01T06:54:36.244Z,27.90
2018-06-01T06:57:09.416Z,28.80
2018-06-01T06:59:42.605Z,29.00
2018-06-01T07:02:15.159Z,29.00
2018-06-01T07:04:47.421Z,29.10
2018-06-01T07:07:19.711Z,29.50
2018-06-01T07:09:52.007Z,29.70
2018-06-01T07:12:24.403Z,30.30
2018-06-01T07:14:56.796Z,30.00
2018-06-01T07:17:29.125Z,30.10
2018-06-01T07:20:02.291Z,30.70
2018-06-01T07:22:34.710Z,30.70
2018-06-01T07:25:06.968Z,30.60
2018-06-01T07:27:40.218Z,30.90
2018-06-01T07:30:12.497Z,31.00
2018-06-01T07:32:44.895Z,31.20
2018-06-01T07:35:17.252Z,31.40
2018-06-01T07:37:49.592Z,31.40
2018-06-01T07:40:21.896Z,31.60
2018-06-01T07:42:54.193Z,31.70
2018-06-01T07:45:27.317Z,32.20
2018-06-01T07:48:00.488Z,32.50
2018-06-01T07:50:33.571Z,32.50
2018-06-01T07:53:06.733Z,32.50
2018-06-01T07:55:38.997Z,32.40
2018-06-01T07:58:11.364Z,32.50
2018-06-01T08:00:43.737Z,32.70
2018-06-01T08:03:16.198Z,32.70
2018-06-01T08:05:48.469Z,33.20
2018-06-01T08:08:20.819Z,33.00
2018-06-01T08:10:53.116Z,32.80
2018-06-01T08:13:25.496Z,33.10
2018-06-01T08:15:57.807Z,33.30
2018-06-01T08:18:31.023Z,34.00
2018-06-01T08:21:03.428Z,34.00
2018-06-01T08:23:35.854Z,33.50
2018-06-01T08:26:09.035Z,33.70
2018-06-01T08:28:42.112Z,34.20
2018-06-01T08:31:14.427Z,34.20
2018-06-01T08:33:46.864Z,34.40
2018-06-01T08:36:19.201Z,34.10
2018-06-01T08:38:51.509Z,33.60
2018-06-01T08:41:23.845Z,34.30
2018-06-01T08:43:56.258Z,34.80
2018-06-01T08:46:29.362Z,35.20
2018-06-01T08:49:02.448Z,35.00
2018-06-01T08:51:35.476Z,34.50
2018-06-01T08:54:07.816Z,34.50
2018-06-01T08:56:40.934Z,34.80
2018-06-01T08:59:13.368Z,34.70
2018-06-01T09:01:45.611Z,34.40
2018-06-01T09:04:17.886Z,34.70
2018-06-01T09:06:50.231Z,35.30
2018-06-01T09:09:22.602Z,35.40
2018-06-01T09:11:54.875Z,35.60
2018-06-01T09:14:27.310Z,35.80
2018-06-01T09:16:59.776Z,35.40
2018-06-01T09:19:32.892Z,34.50
2018-06-01T09:22:05.196Z,34.40
2018-06-01T09:24:37.492Z,34.50
2018-06-01T09:27:09.874Z,34.40
2018-06-01T09:29:42.382Z,34.60
2018-06-01T09:32:14.819Z,34.80
2018-06-01T09:34:47.159Z,34.60
2018-06-01T09:37:19.446Z,35.20
2018-06-01T09:39:51.747Z,34.50
2018-06-01T09:42:24.787Z,34.90
2018-06-01T09:44:57.158Z,34.90
2018-06-01T09:47:29.605Z,35.00
2018-06-01T09:50:01.968Z,34.50
2018-06-01T09:52:34.346Z,34.40
2018-06-01T09:55:06.698Z,34.40
2018-06-01T09:57:39.774Z,34.00
2018-06-01T10:00:12.923Z,34.10
2018-06-01T10:02:45.227Z,34.10
2018-06-01T10:05:18.293Z,32.30
2018-06-01T10:07:50.597Z,32.20
2018-06-01T10:10:22.939Z,32.10
2018-06-01T10:12:55.439Z,31.30
2018-06-01T10:15:28.569Z,32.30
2018-06-01T10:18:00.929Z,32.20
2018-06-01T10:20:34.111Z,32.60
2018-06-01T10:23:07.258Z,32.70
2018-06-01T10:25:39.549Z,32.60
2018-06-01T10:28:11.896Z,31.80
2018-06-01T10:30:44.641Z,31.80
2018-06-01T10:33:16.945Z,31.20
2018-06-01T10:35:49.223Z,31.00
2018-06-01T10:38:21.465Z,30.70
2018-06-01T10:40:53.785Z,30.80
2018-06-01T10:43:26.056Z,30.40
2018-06-01T10:45:58.521Z,30.40
2018-06-01T10:48:30.871Z,30.60
2018-06-01T10:51:03.155Z,30.40
2018-06-01T10:53:35.433Z,30.40
2018-06-01T10:56:07.839Z,30.80
2018-06-01T10:58:40.183Z,31.20
2018-06-01T11:01:12.581Z,31.30
2018-06-01T11:03:44.920Z,31.70
2018-06-01T11:06:17.291Z,31.70
2018-06-01T11:08:49.605Z,31.70
2018-06-01T11:11:22.676Z,32.10
2018-06-01T11:13:55.029Z,32.10
2018-06-01T11:16:27.498Z,32.00
2018-06-01T11:18:59.865Z,32.20
2018-06-01T11:21:32.195Z,31.90
2018-06-01T11:24:04.413Z,31.80
2018-06-01T11:26:36.705Z,31.60
2018-06-01T11:29:08.968Z,31.20
2018-06-01T11:31:41.354Z,30.70
2018-06-01T11:34:13.699Z,30.30
2018-06-01T11:36:46.028Z,30.00
2018-06-01T11:39:18.284Z,29.90
2018-06-01T11:41:51.429Z,29.70
2018-06-01T11:44:23.746Z,29.70
2018-06-01T11:46:56.084Z,29.60
2018-06-01T11:49:28.474Z,29.40
2018-06-01T11:52:00.836Z,29.30
2018-06-01T11:54:33.169Z,29.20
2018-06-01T11:57:05.620Z,28.90
2018-06-01T11:59:38.674Z,28.50
2018-06-01T12:02:11.078Z,28.50
2018-06-01T12:04:44.385Z,28.10
2018-06-01T12:07:16.814Z,28.10
2018-06-01T12:09:49.163Z,28.10
2018-06-01T12:12:21.577Z,28.00
2018-06-01T12:14:53.935Z,27.80
2018-06-01T12:17:26.279Z,28.30
2018-06-01T12:19:58.564Z,27.40
2018-06-01T12:22:30.933Z,27.10
2018-06-01T12:25:03.307Z,26.60
2018-06-01T12:27:35.809Z,25.10
2018-06-01T12:30:08.165Z,23.30
2018-06-01T12:32:41.166Z,22.20
2018-06-01T12:35:13.673Z,21.80
2018-06-01T12:37:46.049Z,21.30
2018-06-01T12:40:18.411Z,20.80
2018-06-01T12:42:51.614Z,20.00
2018-06-01T12:45:23.831Z,19.90
2018-06-01T12:47:56.211Z,19.70
2018-06-01T12:50:28.594Z,19.70
2018-06-01T12:53:01.131Z,19.80
2018-06-01T12:55:33.356Z,19.70
2018-06-01T12:58:06.537Z,19.80
2018-06-01T13:00:38.847Z,19.80
2018-06-01T13:03:11.280Z,19.90
2018-06-01T13:05:44.386Z,20.00
2018-06-01T13:08:16.761Z,20.00
2018-06-01T13:10:49.004Z,19.90
2018-06-01T13:13:21.320Z,19.80
2018-06-01T13:15:54.389Z,19.70
2018-06-01T13:18:27.493Z,19.80
2018-06-01T13:21:00.694Z,19.80
2018-06-01T13:23:33.317Z,19.80
2018-06-01T13:26:05.812Z,19.90
2018-06-01T13:28:38.281Z,19.80
2018-06-01T13:31:10.611Z,19.90
2018-06-01T13:33:42.868Z,20.10
2018-06-01T13:36:15.260Z,20.20
2018-06-01T13:38:47.594Z,20.40
2018-06-01T13:41:20.686Z,20.50
2018-06-01T13:43:53.773Z,20.40
2018-06-01T13:46:26.811Z,20.40
2018-06-01T13:48:59.126Z,20.40
2018-06-01T13:51:32.206Z,20.40
2018-06-01T13:54:04.488Z,20.50
2018-06-01T13:56:36.801Z,20.40
2018-06-01T13:59:09.057Z,20.30
2018-06-01T14:01:41.439Z,20.30
2018-06-01T14:04:13.762Z,20.30
2018-06-01T14:06:46.953Z,20.30
2018-06-01T14:09:19.416Z,20.20
2018-06-01T14:11:51.754Z,20.30
2018-06-01T14:14:24.920Z,20.30
2018-06-01T14:16:58.032Z,20.40
2018-06-01T14:19:30.365Z,20.40
2018-06-01T14:22:02.761Z,20.50
2018-06-01T14:24:35.125Z,20.60
2018-06-01T14:27:07.440Z,20.50
2018-06-01T14:29:39.781Z,20.50
2018-06-01T14:32:12.004Z,20.40
2018-06-01T14:34:44.411Z,20.30
2018-06-01T14:37:17.456Z,20.20
2018-06-01T14:39:49.809Z,20.20
2018-06-01T14:42:22.154Z,20.20
2018-06-01T14:44:54.571Z,20.20
2018-06-01T14:47:27.052Z,20.30
2018-06-01T14:49:59.355Z,20.30
2018-06-01T14:52:32.401Z,20.30
2018-06-01T14:55:04.659Z,20.30
2018-06-01T14:57:36.969Z,20.20
2018-06-01T15:00:09.379Z,20.10
2018-06-01T15:02:41.791Z,20.10
2018-06-01T15:05:14.138Z,20.10
2018-06-01T15:07:46.554Z,20.00
2018-06-01T15:10:19.106Z,20.00
2018-06-01T15:12:51.379Z,20.20
2018-06-01T15:15:23.787Z,20.20
2018-06-01T15:17:56.048Z,20.10
2018-06-01T15:20:28.423Z,20.10
2018-06-01T15:23:00.723Z,20.10
2018-06-01T15:25:33.972Z,20.00
2018-06-01T15:28:06.343Z,20.00
2018-06-01T15:30:38.706Z,19.90
2018-06-01T15:33:11.005Z,19.90
2018-06-01T15:35:43.407Z,20.00
2018-06-01T15:38:16.504Z,19.80
2018-06-01T15:40:49.010Z,19.90
2018-06-01T15:43:21.313Z,19.90
2018-06-01T15:45:53.705Z,19.80
2018-06-01T15:48:26.321Z,19.80
2018-06-01T15:50:58.689Z,19.70
2018-06-01T15:53:31.076Z,19.70
2018-06-01T15:56:03.525Z,19.60
2018-06-01T15:58:35.907Z,19.60
2018-06-01T16:01:08.168Z,19.60
2018-06-01T16:03:40.627Z,19.50
2018-06-01T16:06:13.832Z,19.50
2018-06-01T16:08:46.196Z,19.50
2018-06-01T16:11:18.551Z,19.40
2018-06-01T16:13:50.845Z,19.40
2018-06-01T16:16:23.932Z,19.40
2018-06-01T16:18:56.896Z,19.40
2018-06-01T16:21:29.310Z,19.40
2018-06-01T16:24:01.642Z,19.40
2018-06-01T16:26:34.047Z,19.40
2018-06-01T16:29:06.420Z,19.40
2018-06-01T16:31:38.675Z,19.40
2018-06-01T16:34:11.024Z,19.50
2018-06-01T16:36:43.457Z,19.50
2018-06-01T16:39:15.884Z,19.50
2018-06-01T16:41:48.208Z,19.50
2018-06-01T16:44:20.604Z,19.50
2018-06-01T16:46:52.996Z,19.50
2018-06-01T16:49:25.272Z,19.40
2018-06-01T16:51:57.620Z,19.50
2018-06-01T16:54:29.933Z,19.60
2018-06-01T16:57:03.113Z,19.50
2018-06-01T16:59:35.555Z,19.50
2018-06-01T17:02:07.963Z,19.60
2018-06-01T17:04:40.396Z,19.60
2018-06-01T17:07:12.822Z,19.60
2018-06-01T17:09:45.960Z,19.70
2018-06-01T17:12:18.368Z,19.70
2018-06-01T17:14:50.602Z,19.80
2018-06-01T17:17:22.929Z,19.80
2018-06-01T17:19:55.226Z,19.80
2018-06-01T17:22:27.595Z,19.70
2018-06-01T17:24:59.999Z,19.70
2018-06-01T17:27:32.320Z,19.80
2018-06-01T17:30:05.467Z,20.00
2018-06-01T17:32:37.770Z,20.00
2018-06-01T17:35:10.083Z,20.00
2018-06-01T17:37:42.454Z,20.00
2018-06-01T17:40:14.681Z,20.10
2018-06-01T17:42:47.054Z,20.10
2018-06-01T17:45:20.218Z,20.10
2018-06-01T17:47:52.658Z,20.10
2018-06-01T17:50:24.999Z,20.20
2018-06-01T17:52:58.036Z,20.10
2018-06-01T17:55:31.198Z,20.00
2018-06-01T17:58:03.631Z,20.00
2018-06-01T18:00:35.916Z,20.10
2018-06-01T18:03:08.387Z,20.10
2018-06-01T18:05:40.691Z,20.10
2018-06-01T18:08:13.030Z,20.10
2018-06-01T18:10:45.394Z,20.10
2018-06-01T18:13:17.856Z,20.10
2018-06-01T18:15:50.239Z,20.10
2018-06-01T18:18:22.580Z,20.10
2018-06-01T18:20:55.020Z,20.00
2018-06-01T18:23:28.334Z,20.00
2018-06-01T18:26:00.760Z,20.00
2018-06-01T18:28:33.077Z,20.00
2018-06-01T18:31:05.480Z,20.00
2018-06-01T18:33:37.862Z,20.00
2018-06-01T18:36:10.173Z,20.00
2018-06-01T18:38:42.500Z,19.90
2018-06-01T18:41:21.976Z,19.90
2018-06-01T18:43:54.936Z,19.90
2018-06-01T18:46:27.192Z,19.90
2018-06-01T18:48:59.642Z,19.90
2018-06-01T18:51:31.968Z,19.90
2018-06-01T18:54:04.369Z,19.90
2018-06-01T18:56:37.506Z,19.90
2018-06-01T18:59:09.848Z,19.90
2018-06-01T19:01:42.159Z,19.90
2018-06-01T19:04:14.648Z,19.90
2018-06-01T19:06:46.923Z,19.90
2018-06-01T19:09:19.222Z,19.80
2018-06-01T19:11:52.373Z,19.80
2018-06-01T19:14:24.798Z,19.80
2018-06-01T19:16:57.236Z,19.80
2018-06-01T19:19:30.367Z,19.80
2018-06-01T19:22:02.766Z,19.80
2018-06-01T19:24:35.123Z,19.80
2018-06-01T19:27:07.430Z,19.70
2018-06-01T19:29:39.803Z,19.70
2018-06-01T19:32:12.225Z,19.70
2018-06-01T19:34:44.556Z,19.70
2018-06-01T19:37:16.893Z,19.70
2018-06-01T19:39:49.488Z,19.60
2018-06-01T19:42:21.754Z,19.60
2018-06-01T19:44:54.148Z,19.60
2018-06-01T19:47:26.524Z,19.70
2018-06-01T19:49:58.843Z,19.50
2018-06-01T19:52:31.262Z,19.50
2018-06-01T19:55:03.691Z,19.40
2018-06-01T19:57:36.099Z,19.50
2018-06-01T20:00:08.435Z,19.50
2018-06-01T20:02:40.726Z,19.40
2018-06-01T20:05:13.113Z,19.40
2018-06-01T20:07:45.389Z,19.40
2018-06-01T20:10:17.679Z,19.40
2018-06-01T20:12:49.942Z,19.40
2018-06-01T20:15:22.333Z,19.40
2018-06-01T20:17:55.499Z,19.30
2018-06-01T20:20:27.790Z,19.30
2018-06-01T20:23:00.855Z,19.30
2018-06-01T20:25:33.177Z,19.30
2018-06-01T20:28:05.561Z,19.30
2018-06-01T20:30:37.874Z,19.20
2018-06-01T20:33:11.018Z,19.30
2018-06-01T20:35:43.356Z,19.20
2018-06-01T20:38:15.700Z,19.20
2018-06-01T20:40:48.035Z,19.30
2018-06-01T20:43:20.313Z,19.20
2018-06-01T20:45:52.670Z,19.20
2018-06-01T20:48:26.271Z,19.20
2018-06-01T20:50:58.566Z,19.20
2018-06-01T20:53:30.889Z,19.20
2018-06-01T20:56:03.211Z,19.20
2018-06-01T20:58:35.493Z,19.20
2018-06-01T21:01:07.942Z,19.20
2018-06-01T21:03:40.265Z,19.30
2018-06-01T21:06:12.673Z,19.40
2018-06-01T21:08:45.753Z,19.40
2018-06-01T21:11:18.994Z,19.30
2018-06-01T21:13:51.285Z,19.30
2018-06-01T21:16:23.639Z,19.20
2018-06-01T21:18:55.917Z,19.30
2018-06-01T21:21:28.156Z,19.30
2018-06-01T21:24:00.545Z,19.30
2018-06-01T21:26:32.874Z,19.30
2018-06-01T21:29:06.010Z,19.20
2018-06-01T21:31:38.316Z,19.20
2018-06-01T21:34:10.629Z,19.20
2018-06-01T21:36:43.082Z,19.20
2018-06-01T21:39:16.182Z,19.10
2018-06-01T21:41:48.585Z,19.10
2018-06-01T21:44:21.532Z,19.00
2018-06-01T21:46:54.597Z,19.00
2018-06-01T21:49:26.895Z,19.00
2018-06-01T21:51:59.959Z,19.00
2018-06-01T21:54:32.269Z,19.00
2018-06-01T21:57:04.642Z,19.00
2018-06-01T21:59:36.944Z,18.90
2018-06-01T22:02:09.298Z,18.50
2018-06-01T22:04:41.748Z,18.90
2018-06-01T22:07:14.841Z,18.70
2018-06-01T22:09:47.135Z,18.70
2018-06-01T22:12:19.459Z,18.70
2018-06-01T22:14:51.747Z,18.60
2018-06-01T22:17:24.800Z,18.70
2018-06-01T22:19:57.093Z,18.60
2018-06-01T22:22:29.371Z,18.60
2018-06-01T22:25:02.429Z,18.50
2018-06-01T22:27:34.906Z,18.50
2018-06-01T22:30:07.165Z,18.50
2018-06-01T22:32:39.537Z,18.50
2018-06-01T22:35:11.903Z,18.50
2018-06-01T22:37:44.327Z,18.50
2018-06-01T22:40:16.780Z,18.50
2018-06-01T22:42:49.140Z,18.50
2018-06-01T22:45:21.402Z,18.50
2018-06-01T22:47:53.793Z,18.50
2018-06-01T22:50:26.140Z,18.50
2018-06-01T22:52:58.529Z,18.50
2018-06-01T22:55:30.787Z,18.50
2018-06-01T22:58:03.105Z,18.50
2018-06-01T23:00:35.392Z,18.50
2018-06-01T23:03:07.743Z,18.50
2018-06-01T23:05:40.009Z,18.50
2018-06-01T23:08:12.365Z,18.50
2018-06-01T23:10:44.747Z,18.50
2018-06-01T23:13:17.169Z,18.40
2018-06-01T23:15:49.512Z,18.50
2018-06-01T23:18:22.585Z,18.50
2018-06-01T23:20:54.926Z,18.50
2018-06-01T23:23:27.430Z,18.50
2018-06-01T23:25:59.778Z,18.50
2018-06-01T23:28:32.112Z,18.60
2018-06-01T23:31:04.425Z,18.60
2018-06-01T23:33:36.736Z,18.60
2018-06-01T23:36:09.844Z,18.60
2018-06-01T23:38:42.210Z,18.60
2018-06-01T23:41:15.332Z,18.50
2018-06-01T23:43:47.781Z,18.50
2018-06-01T23:46:20.095Z,18.70
2018-06-01T23:48:52.428Z,18.30
2018-06-01T23:51:24.737Z,18.30
2018-06-01T23:53:57.126Z,18.20
2018-06-01T23:56:29.586Z,18.20
2018-06-01T23:59:01.986Z,18.20
